createdAt,value
2018-07-14T00:02:24.215Z,21.28
2018-07-14T00:04:53.358Z,21.25
2018-07-14T00:07:22.537Z,21.24
2018-07-14T00:09:51.826Z,21.14
2018-07-14T00:12:20.826Z,21.12
2018-07-14T00:14:49.903Z,21.04
2018-07-14T00:17:18.943Z,21.02
2018-07-14T00:19:48.017Z,20.99
2018-07-14T00:22:17.161Z,20.94
2018-07-14T00:24:46.237Z,20.90
2018-07-14T00:27:15.293Z,20.87
2018-07-14T00:29:44.374Z,20.82
2018-07-14T00:32:13.465Z,20.89
2018-07-14T00:34:42.631Z,20.85
2018-07-14T00:37:11.714Z,20.72
2018-07-14T00:39:40.808Z,20.63
2018-07-14T00:42:09.870Z,20.68
2018-07-14T00:44:39.000Z,20.79
2018-07-14T00:47:08.090Z,20.72
2018-07-14T00:49:37.154Z,20.58
2018-07-14T00:52:06.258Z,20.56
2018-07-14T00:54:35.334Z,20.48
2018-07-14T00:57:04.430Z,20.51
2018-07-14T00:59:33.537Z,20.35
2018-07-14T01:02:02.637Z,20.32
2018-07-14T01:04:31.713Z,20.29
2018-07-14T01:07:00.849Z,20.12
2018-07-14T01:09:30.000Z,20.24
2018-07-14T01:11:59.210Z,20.17
2018-07-14T01:14:28.400Z,20.14
2018-07-14T01:17:00.548Z,20.16
2018-07-14T01:19:29.634Z,20.13
2018-07-14T01:21:59.145Z,20.07
2018-07-14T01:24:28.908Z,19.93
2018-07-14T01:26:58.078Z,19.77
2018-07-14T01:29:27.180Z,19.82
2018-07-14T01:31:56.271Z,19.77
2018-07-14T01:34:25.334Z,19.78
2018-07-14T01:36:54.437Z,19.59
2018-07-14T01:39:23.494Z,19.55
2018-07-14T01:41:52.645Z,19.54
2018-07-14T01:44:21.765Z,19.52
2018-07-14T01:46:50.853Z,19.51
2018-07-14T01:49:20.718Z,19.34
2018-07-14T01:51:49.766Z,19.33
2018-07-14T01:54:18.881Z,19.33
2018-07-14T01:56:48.002Z,19.42
2018-07-14T01:59:17.010Z,19.53
2018-07-14T02:01:46.070Z,19.57
2018-07-14T02:04:15.271Z,19.56
2018-07-14T02:06:44.401Z,19.52
2018-07-14T02:09:13.489Z,19.49
2018-07-14T02:11:42.546Z,19.46
2018-07-14T02:14:11.600Z,19.49
2018-07-14T02:16:40.686Z,19.57
2018-07-14T02:19:09.795Z,19.52
2018-07-14T02:21:38.833Z,19.36
2018-07-14T02:24:07.952Z,19.23
2018-07-14T02:26:37.261Z,19.21
2018-07-14T02:29:06.317Z,19.33
2018-07-14T02:31:35.475Z,19.28
2018-07-14T02:34:04.614Z,19.30
2018-07-14T02:36:33.797Z,19.33
2018-07-14T02:39:02.966Z,18.96
2018-07-14T02:41:31.967Z,19.25
2018-07-14T02:44:01.158Z,19.16
2018-07-14T02:46:30.215Z,19.11
2018-07-14T02:48:59.332Z,19.20
2018-07-14T02:51:28.802Z,19.11
2018-07-14T02:53:58.034Z,19.10
2018-07-14T02:56:27.182Z,19.08
2018-07-14T02:58:56.589Z,19.07
2018-07-14T03:01:25.669Z,18.93
2018-07-14T03:03:54.782Z,18.69
2018-07-14T03:06:23.932Z,18.55
2018-07-14T03:08:54.497Z,18.67
2018-07-14T03:11:23.987Z,18.74
2018-07-14T03:13:53.091Z,18.72
2018-07-14T03:16:22.221Z,18.77
2018-07-14T03:18:51.325Z,18.86
2018-07-14T03:21:20.430Z,18.90
2018-07-14T03:23:49.515Z,18.71
2018-07-14T03:26:18.657Z,18.61
2018-07-14T03:28:47.840Z,18.59
2018-07-14T03:31:16.934Z,18.58
2018-07-14T03:33:46.010Z,18.59
2018-07-14T03:36:15.240Z,18.64
2018-07-14T03:38:44.395Z,18.70
2018-07-14T03:41:13.474Z,18.52
2018-07-14T03:43:42.761Z,18.48
2018-07-14T03:46:12.131Z,18.49
2018-07-14T03:48:41.563Z,18.41
2018-07-14T03:51:11.560Z,18.29
2018-07-14T03:53:40.592Z,18.29
2018-07-14T03:56:09.742Z,18.30
2018-07-14T03:58:39.279Z,18.26
2018-07-14T04:01:08.443Z,18.26
2018-07-14T04:03:37.488Z,18.40
2018-07-14T04:06:07.213Z,18.51
2018-07-14T04:08:36.390Z,18.54
2018-07-14T04:11:05.568Z,18.43
2018-07-14T04:13:34.654Z,18.47
2018-07-14T04:16:03.802Z,18.58
2018-07-14T04:18:32.922Z,18.65
2018-07-14T04:21:02.118Z,18.64
2018-07-14T04:23:31.221Z,18.59
2018-07-14T04:26:00.679Z,18.57
2018-07-14T04:28:30.182Z,18.57
2018-07-14T04:30:59.272Z,18.65
2018-07-14T04:33:28.376Z,18.66
2018-07-14T04:35:57.473Z,18.49
2018-07-14T04:38:26.694Z,18.38
2018-07-14T04:40:55.734Z,18.33
2018-07-14T04:43:24.827Z,18.57
2018-07-14T04:45:53.994Z,18.52
2018-07-14T04:48:23.205Z,18.58
2018-07-14T04:50:52.310Z,18.62
2018-07-14T04:53:21.473Z,18.63
2018-07-14T04:55:50.670Z,18.62
2018-07-14T04:58:19.763Z,18.62
2018-07-14T05:00:48.886Z,18.68
2018-07-14T05:03:18.405Z,18.74
2018-07-14T05:05:47.641Z,18.76
2018-07-14T05:08:16.714Z,18.77
2018-07-14T05:10:45.753Z,18.51
2018-07-14T05:13:14.865Z,18.84
2018-07-14T05:15:44.007Z,19.02
2018-07-14T05:18:13.118Z,19.15
2018-07-14T05:20:42.187Z,19.26
2018-07-14T05:23:11.266Z,19.28
2018-07-14T05:25:40.518Z,19.19
2018-07-14T05:28:10.950Z,19.05
2018-07-14T05:30:40.094Z,19.16
2018-07-14T05:33:09.711Z,19.25
2018-07-14T05:35:38.836Z,19.11
2018-07-14T05:38:08.153Z,19.02
2018-07-14T05:40:37.235Z,19.05
2018-07-14T05:43:07.741Z,19.21
2018-07-14T05:45:36.909Z,19.45
2018-07-14T05:48:06.933Z,19.66
2018-07-14T05:50:36.096Z,19.82
2018-07-14T05:53:05.303Z,19.84
2018-07-14T05:55:34.399Z,19.76
2018-07-14T05:58:03.503Z,19.82
2018-07-14T06:00:32.632Z,19.92
2018-07-14T06:03:01.742Z,19.95
2018-07-14T06:05:30.888Z,19.86
2018-07-14T06:08:00.402Z,19.96
2018-07-14T06:10:29.678Z,20.15
2018-07-14T06:12:58.760Z,20.23
2018-07-14T06:15:27.889Z,20.27
2018-07-14T06:17:57.076Z,20.31
2018-07-14T06:20:26.176Z,20.47
2018-07-14T06:22:55.336Z,20.60
2018-07-14T06:25:24.594Z,20.86
2018-07-14T06:27:54.353Z,20.93
2018-07-14T06:30:25.377Z,20.88
2018-07-14T06:32:54.460Z,20.95
2018-07-14T06:35:23.842Z,21.00
2018-07-14T06:37:52.973Z,21.03
2018-07-14T06:40:22.391Z,21.11
2018-07-14T06:42:51.524Z,21.21
2018-07-14T06:45:20.770Z,21.30
2018-07-14T06:47:50.628Z,21.41
2018-07-14T06:50:20.065Z,21.48
2018-07-14T06:52:49.245Z,21.49
2018-07-14T06:55:18.573Z,21.56
2018-07-14T06:57:47.630Z,21.67
2018-07-14T07:00:16.766Z,21.76
2018-07-14T07:02:45.973Z,21.89
2018-07-14T07:05:15.048Z,21.95
2018-07-14T07:07:44.140Z,22.00
2018-07-14T07:10:13.218Z,21.94
2018-07-14T07:12:42.334Z,22.13
2018-07-14T07:15:11.426Z,22.35
2018-07-14T07:17:40.544Z,22.51
2018-07-14T07:20:09.688Z,22.59
2018-07-14T07:22:38.794Z,22.83
2018-07-14T07:25:07.913Z,22.85
2018-07-14T07:27:37.095Z,22.96
2018-07-14T07:30:07.097Z,23.02
2018-07-14T07:32:36.187Z,23.08
2018-07-14T07:35:05.336Z,23.16
2018-07-14T07:37:34.524Z,23.25
2018-07-14T07:40:03.681Z,23.44
2018-07-14T07:42:33.160Z,23.52
2018-07-14T07:45:02.356Z,23.71
2018-07-14T07:47:31.450Z,23.78
2018-07-14T07:50:00.705Z,23.88
2018-07-14T07:52:29.794Z,23.88
2018-07-14T07:54:59.469Z,23.98
2018-07-14T07:57:28.599Z,24.09
2018-07-14T07:59:57.733Z,24.15
2018-07-14T08:02:26.881Z,23.99
2018-07-14T08:04:55.971Z,24.14
2018-07-14T08:07:25.081Z,24.26
2018-07-14T08:09:54.209Z,24.46
2018-07-14T08:12:23.358Z,24.63
2018-07-14T08:14:52.585Z,24.79
2018-07-14T08:17:21.767Z,24.89
2018-07-14T08:19:51.297Z,24.99
2018-07-14T08:22:20.486Z,25.10
2018-07-14T08:24:49.676Z,25.21
2018-07-14T08:27:18.908Z,25.25
2018-07-14T08:29:47.955Z,25.31
2018-07-14T08:32:17.332Z,25.40
2018-07-14T08:34:46.383Z,25.52
2018-07-14T08:37:15.461Z,25.71
2018-07-14T08:39:44.586Z,25.85
2018-07-14T08:42:13.713Z,25.97
2018-07-14T08:44:42.960Z,25.97
2018-07-14T08:47:12.009Z,26.02
2018-07-14T08:49:41.085Z,26.07
2018-07-14T08:52:10.184Z,26.20
2018-07-14T08:54:39.277Z,26.30
2018-07-14T08:57:09.573Z,26.42
2018-07-14T08:59:38.681Z,26.55
2018-07-14T09:02:07.788Z,26.63
2018-07-14T09:04:36.854Z,26.72
2018-07-14T09:07:06.179Z,26.76
2018-07-14T09:09:35.398Z,26.79
2018-07-14T09:12:04.529Z,26.91
2018-07-14T09:14:33.831Z,27.00
2018-07-14T09:17:02.931Z,27.00
2018-07-14T09:19:32.023Z,27.09
2018-07-14T09:22:01.905Z,27.17
2018-07-14T09:24:32.818Z,27.33
2018-07-14T09:27:01.913Z,27.25
2018-07-14T09:29:31.137Z,27.10
2018-07-14T09:32:00.314Z,27.27
2018-07-14T09:34:29.426Z,27.20
2018-07-14T09:36:58.471Z,27.35
2018-07-14T09:39:27.573Z,27.55
2018-07-14T09:41:56.654Z,27.74
2018-07-14T09:44:26.837Z,27.58
2018-07-14T09:46:56.010Z,27.46
2018-07-14T09:49:25.107Z,27.56
2018-07-14T09:51:54.721Z,27.44
2018-07-14T09:54:24.323Z,27.31
2018-07-14T09:56:53.488Z,27.54
2018-07-14T09:59:22.636Z,27.84
2018-07-14T10:01:51.856Z,27.93
2018-07-14T10:04:21.120Z,28.03
2018-07-14T10:06:50.907Z,28.20
2018-07-14T10:09:20.004Z,28.29
2018-07-14T10:11:49.138Z,28.37
2018-07-14T10:14:18.291Z,28.25
2018-07-14T10:16:47.384Z,28.24
2018-07-14T10:19:17.534Z,28.30
2018-07-14T10:21:46.780Z,28.51
2018-07-14T10:24:15.963Z,28.50
2018-07-14T10:26:45.079Z,28.35
2018-07-14T10:29:14.227Z,28.07
2018-07-14T10:31:47.370Z,28.09
2018-07-14T10:34:16.551Z,28.03
2018-07-14T10:36:46.185Z,28.17
2018-07-14T10:39:15.461Z,28.52
2018-07-14T10:41:44.594Z,28.83
2018-07-14T10:44:13.725Z,28.94
2018-07-14T10:46:42.956Z,29.01
2018-07-14T10:49:12.354Z,29.12
2018-07-14T10:51:41.460Z,29.30
2018-07-14T10:54:10.565Z,29.41
2018-07-14T10:56:39.827Z,29.32
2018-07-14T10:59:09.010Z,29.25
2018-07-14T11:01:38.308Z,29.51
2018-07-14T11:04:08.461Z,29.74
2018-07-14T11:06:37.641Z,29.97
2018-07-14T11:09:07.599Z,29.81
2018-07-14T11:11:36.697Z,30.02
2018-07-14T11:14:05.834Z,30.11
2018-07-14T11:16:35.031Z,30.28
2018-07-14T11:19:04.170Z,30.35
2018-07-14T11:21:33.320Z,30.35
2018-07-14T11:24:02.380Z,30.59
2018-07-14T11:26:31.530Z,30.60
2018-07-14T11:29:01.082Z,30.81
2018-07-14T11:31:30.312Z,30.94
2018-07-14T11:33:59.622Z,30.69
2018-07-14T11:36:28.822Z,30.84
2018-07-14T11:38:58.465Z,30.95
2018-07-14T11:41:27.580Z,30.88
2018-07-14T11:43:56.710Z,30.89
2018-07-14T11:46:25.757Z,30.98
2018-07-14T11:48:54.890Z,30.80
2018-07-14T11:51:24.153Z,30.70
2018-07-14T11:53:53.660Z,30.67
2018-07-14T11:56:22.776Z,30.74
2018-07-14T11:58:51.917Z,30.77
2018-07-14T12:01:21.097Z,30.53
2018-07-14T12:03:50.164Z,29.90
2018-07-14T12:06:19.207Z,29.62
2018-07-14T12:08:48.333Z,29.56
2018-07-14T12:11:17.441Z,29.81
2018-07-14T12:13:46.566Z,29.81
2018-07-14T12:16:15.678Z,30.30
2018-07-14T12:18:45.074Z,30.80
2018-07-14T12:21:14.459Z,30.94
2018-07-14T12:23:43.568Z,31.36
2018-07-14T12:26:12.721Z,31.58
2018-07-14T12:28:41.927Z,31.78
2018-07-14T12:31:11.414Z,31.83
2018-07-14T12:33:40.478Z,31.90
2018-07-14T12:36:09.735Z,31.82
2018-07-14T12:38:38.921Z,31.91
2018-07-14T12:41:08.118Z,31.97
2018-07-14T12:43:37.344Z,32.33
2018-07-14T12:46:06.450Z,32.66
2018-07-14T12:48:35.517Z,32.85
2018-07-14T12:51:04.642Z,32.89
2018-07-14T12:53:33.789Z,32.50
2018-07-14T12:56:04.839Z,32.82
2018-07-14T12:58:33.985Z,33.18
2018-07-14T13:01:03.640Z,32.56
2018-07-14T13:03:32.809Z,33.47
2018-07-14T13:06:01.940Z,33.46
2018-07-14T13:08:31.056Z,33.17
2018-07-14T13:11:00.297Z,32.72
2018-07-14T13:13:29.336Z,32.22
2018-07-14T13:15:58.436Z,30.94
2018-07-14T13:18:27.537Z,30.83
2018-07-14T13:20:56.635Z,30.95
2018-07-14T13:23:26.301Z,31.06
2018-07-14T13:25:55.434Z,31.24
2018-07-14T13:28:24.529Z,31.25
2018-07-14T13:30:53.631Z,31.14
2018-07-14T13:33:23.056Z,31.44
2018-07-14T13:35:52.714Z,31.83
2018-07-14T13:38:22.184Z,32.13
2018-07-14T13:40:51.381Z,32.33
2018-07-14T13:43:20.691Z,32.58
2018-07-14T13:45:49.794Z,32.34
2018-07-14T14:09:49.267Z,33.33
2018-07-14T14:12:18.381Z,32.94
2018-07-14T14:14:47.910Z,32.74
2018-07-14T14:17:17.001Z,32.58
2018-07-14T14:19:46.163Z,32.23
2018-07-14T14:22:15.244Z,32.29
2018-07-14T14:24:44.453Z,32.33
2018-07-14T14:27:20.023Z,32.10
2018-07-14T14:29:49.118Z,31.78
2018-07-14T14:32:18.201Z,31.76
2018-07-14T14:34:47.314Z,32.09
2018-07-14T14:37:16.440Z,32.52
2018-07-14T14:39:45.831Z,31.91
2018-07-14T14:42:14.924Z,32.02
2018-07-14T14:44:44.175Z,32.06
2018-07-14T14:47:13.278Z,31.88
2018-07-14T14:49:42.341Z,31.57
2018-07-14T14:52:11.485Z,31.48
2018-07-14T14:54:40.556Z,30.94
2018-07-14T14:57:09.670Z,31.00
2018-07-14T14:59:39.742Z,31.18
2018-07-14T15:02:08.829Z,31.10
2018-07-14T15:04:37.984Z,31.04
2018-07-14T15:07:07.571Z,31.03
2018-07-14T15:09:36.633Z,31.11
2018-07-14T15:12:05.700Z,30.88
2018-07-14T15:14:34.802Z,30.93
2018-07-14T15:17:03.943Z,30.93
2018-07-14T15:19:32.973Z,30.94
2018-07-14T15:22:02.146Z,31.41
2018-07-14T15:24:31.228Z,31.70
2018-07-14T15:27:00.405Z,31.64
2018-07-14T15:29:29.461Z,31.77
2018-07-14T15:31:58.557Z,31.90
2018-07-14T15:34:27.621Z,31.60
2018-07-14T15:36:56.714Z,31.61
2018-07-14T15:39:25.769Z,31.97
2018-07-14T15:41:54.842Z,32.13
2018-07-14T15:44:24.010Z,32.58
2018-07-14T15:46:53.281Z,33.23
2018-07-14T15:49:22.398Z,33.61
2018-07-14T15:51:51.499Z,33.95
2018-07-14T15:54:20.683Z,33.95
2018-07-14T15:56:49.862Z,33.58
2018-07-14T15:59:18.965Z,32.98
2018-07-14T16:01:48.044Z,32.53
2018-07-14T16:04:17.194Z,32.66
2018-07-14T16:06:46.254Z,32.79
2018-07-14T16:09:15.360Z,32.98
2018-07-14T16:11:44.450Z,33.19
2018-07-14T16:14:13.609Z,33.11
2018-07-14T16:16:42.722Z,32.97
2018-07-14T16:19:11.810Z,32.67
2018-07-14T16:21:40.864Z,32.26
2018-07-14T16:24:09.998Z,32.15
2018-07-14T16:26:39.267Z,32.21
2018-07-14T16:29:08.417Z,32.49
2018-07-14T16:31:37.484Z,32.43
2018-07-14T16:34:06.623Z,32.33
2018-07-14T16:36:35.834Z,32.77
2018-07-14T16:39:07.100Z,32.96
2018-07-14T16:41:36.189Z,33.12
2018-07-14T16:44:05.362Z,33.07
2018-07-14T16:46:34.459Z,33.27
2018-07-14T16:49:03.577Z,33.47
2018-07-14T16:51:32.661Z,33.79
2018-07-14T16:54:01.798Z,34.13
2018-07-14T16:56:30.943Z,34.31
2018-07-14T16:59:00.024Z,33.78
2018-07-14T17:01:29.109Z,33.80
2018-07-14T17:03:58.183Z,33.67
2018-07-14T17:06:27.275Z,33.92
2018-07-14T17:08:56.378Z,34.42
2018-07-14T17:11:25.467Z,34.04
2018-07-14T17:13:54.567Z,33.52
2018-07-14T17:16:23.650Z,32.82
2018-07-14T17:18:52.723Z,32.49
2018-07-14T17:21:21.827Z,32.15
2018-07-14T17:23:50.968Z,32.02
2018-07-14T17:26:20.097Z,32.05
2018-07-14T17:28:49.240Z,31.92
2018-07-14T17:31:18.406Z,31.77
2018-07-14T17:33:47.461Z,31.64
2018-07-14T17:36:16.701Z,31.38
2018-07-14T17:38:45.744Z,31.32
2018-07-14T17:41:14.854Z,31.39
2018-07-14T17:43:44.040Z,31.41
2018-07-14T17:46:13.093Z,31.50
2018-07-14T17:48:42.106Z,31.25
2018-07-14T17:51:14.869Z,31.10
2018-07-14T17:53:44.069Z,31.22
2018-07-14T17:56:13.152Z,31.26
2018-07-14T17:58:43.728Z,31.09
2018-07-14T18:01:12.852Z,31.07
2018-07-14T18:03:41.879Z,31.15
2018-07-14T18:06:12.113Z,31.26
2018-07-14T18:08:41.190Z,31.14
2018-07-14T18:11:11.579Z,30.98
2018-07-14T18:13:41.043Z,30.86
2018-07-14T18:16:10.215Z,31.01
2018-07-14T18:18:40.372Z,31.09
2018-07-14T18:21:09.421Z,31.10
2018-07-14T18:23:38.594Z,30.82
2018-07-14T18:26:07.869Z,30.67
2018-07-14T18:28:36.896Z,30.69
2018-07-14T18:31:06.026Z,30.59
2018-07-14T18:33:35.332Z,30.65
2018-07-14T18:36:04.521Z,30.60
2018-07-14T18:38:34.175Z,30.35
2018-07-14T18:41:03.253Z,30.21
2018-07-14T18:43:32.323Z,30.25
2018-07-14T18:46:01.403Z,30.22
2018-07-14T18:48:30.585Z,30.25
2018-07-14T18:50:59.634Z,30.08
2018-07-14T18:53:28.718Z,29.83
2018-07-14T18:55:58.017Z,29.66
2018-07-14T18:58:27.714Z,29.55
2018-07-14T19:00:56.857Z,29.72
2018-07-14T19:03:25.949Z,29.87
2018-07-14T19:05:55.066Z,29.94
2018-07-14T19:08:25.173Z,29.87
2018-07-14T19:10:54.528Z,29.86
2018-07-14T19:13:24.033Z,29.89
2018-07-14T19:15:53.097Z,29.88
2018-07-14T19:18:22.537Z,29.77
2018-07-14T19:20:51.656Z,29.61
2018-07-14T19:23:20.838Z,29.64
2018-07-14T19:25:50.000Z,29.54
2018-07-14T19:28:19.009Z,29.55
2018-07-14T19:30:48.927Z,29.53
2018-07-14T19:33:17.989Z,29.34
2018-07-14T19:35:47.124Z,29.22
2018-07-14T19:38:16.263Z,29.06
2018-07-14T19:40:45.718Z,28.98
2018-07-14T19:43:16.195Z,28.92
2018-07-14T19:45:45.329Z,28.79
2018-07-14T19:48:14.413Z,28.76
2018-07-14T19:50:43.613Z,28.64
2018-07-14T19:53:12.717Z,28.37
2018-07-14T19:55:41.870Z,28.30
2018-07-14T19:58:10.980Z,28.37
2018-07-14T20:00:40.189Z,28.57
2018-07-14T20:03:09.308Z,28.63
2018-07-14T20:05:38.469Z,28.66
2018-07-14T20:08:07.572Z,28.68
2018-07-14T20:10:36.767Z,28.59
2018-07-14T20:13:05.950Z,28.54
2018-07-14T20:15:35.182Z,28.46
2018-07-14T20:18:04.292Z,28.30
2018-07-14T20:20:33.467Z,28.26
2018-07-14T20:23:02.723Z,28.22
2018-07-14T20:25:31.920Z,28.16
2018-07-14T20:28:01.391Z,28.21
2018-07-14T20:30:30.887Z,28.07
2018-07-14T20:33:00.089Z,28.03
2018-07-14T20:35:29.314Z,28.05
2018-07-14T20:37:58.495Z,28.07
2018-07-14T20:40:29.499Z,28.07
2018-07-14T20:42:59.837Z,28.04
2018-07-14T20:45:32.494Z,28.02
2018-07-14T20:48:01.754Z,27.96
2018-07-14T20:50:30.839Z,27.98
2018-07-14T20:52:59.989Z,27.97
2018-07-14T20:55:29.524Z,27.90
2018-07-14T20:57:58.771Z,27.86
2018-07-14T21:00:28.024Z,27.82
2018-07-14T21:02:57.315Z,27.63
2018-07-14T21:05:26.526Z,27.46
2018-07-14T21:07:55.640Z,27.46
2018-07-14T21:10:24.825Z,27.42
2018-07-14T21:12:54.043Z,27.40
2018-07-14T21:15:23.272Z,27.40
2018-07-14T21:17:52.465Z,27.45
2018-07-14T21:20:22.288Z,27.40
2018-07-14T21:22:51.518Z,27.30
2018-07-14T21:25:20.612Z,27.28
2018-07-14T21:27:50.346Z,27.23
2018-07-14T21:30:19.532Z,27.16
2018-07-14T21:32:49.160Z,27.08
2018-07-14T21:35:18.400Z,26.94
2018-07-14T21:37:48.186Z,26.81
2018-07-14T21:40:17.421Z,26.80
2018-07-14T21:42:46.684Z,26.75
2018-07-14T21:45:15.940Z,26.85
2018-07-14T21:47:45.042Z,26.83
2018-07-14T21:50:15.079Z,26.85
2018-07-14T21:52:44.518Z,26.83
2018-07-14T21:55:13.657Z,26.65
2018-07-14T21:57:42.797Z,26.63
2018-07-14T22:00:22.026Z,26.54
2018-07-14T22:02:51.073Z,26.30
2018-07-14T22:05:20.280Z,26.28
2018-07-14T22:07:49.323Z,26.12
2018-07-14T22:10:18.439Z,25.94
2018-07-14T22:12:47.572Z,25.78
2018-07-14T22:15:16.754Z,25.69
2018-07-14T22:17:45.971Z,25.81
2018-07-14T22:20:15.111Z,25.87
2018-07-14T22:22:44.242Z,25.79
2018-07-14T22:25:13.747Z,25.22
2018-07-14T22:27:42.940Z,24.94
2018-07-14T22:30:12.067Z,25.06
2018-07-14T22:32:41.210Z,24.95
2018-07-14T22:35:10.313Z,25.20
2018-07-14T22:37:39.447Z,25.37
2018-07-14T22:40:08.533Z,25.50
2018-07-14T22:42:37.645Z,23.06
2018-07-14T22:45:06.787Z,25.61
2018-07-14T22:47:35.898Z,25.60
2018-07-14T22:50:04.986Z,25.49
2018-07-14T22:52:34.193Z,25.35
2018-07-14T22:55:03.288Z,25.34
2018-07-14T22:57:32.373Z,25.38
2018-07-14T23:00:01.494Z,25.36
2018-07-14T23:02:30.586Z,24.89
2018-07-14T23:04:59.684Z,24.40
2018-07-14T23:07:28.762Z,23.93
2018-07-14T23:09:57.878Z,23.70
2018-07-14T23:12:26.918Z,23.58
2018-07-14T23:14:56.074Z,23.48
2018-07-14T23:17:25.156Z,23.31
2018-07-14T23:19:54.372Z,23.06
2018-07-14T23:22:23.488Z,22.96
2018-07-14T23:24:52.603Z,22.90
2018-07-14T23:27:21.687Z,22.91
2018-07-14T23:29:50.841Z,22.93
2018-07-14T23:32:19.971Z,22.73
2018-07-14T23:34:49.210Z,22.72
2018-07-14T23:37:18.402Z,22.73
2018-07-14T23:39:47.523Z,22.68
2018-07-14T23:42:16.605Z,22.59
2018-07-14T23:44:45.690Z,22.46
2018-07-14T23:47:14.779Z,22.37
2018-07-14T23:49:43.928Z,22.10
2018-07-14T23:52:13.526Z,22.13
2018-07-14T23:54:42.636Z,22.16
2018-07-14T23:57:11.758Z,22.23
2018-07-14T23:59:41.018Z,22.24
